sensor_id;sensor_type;location;lat;lon;timestamp;P1;durP1;ratioP1;P2;durP2;ratioP2
64669;SDS011;51080;51.690;5.174;2023-03-01T00:01:12;20.90;;;12.50;;
64669;SDS011;51080;51.690;5.174;2023-03-01T00:06:59;17.10;;;11.30;;
64669;SDS011;51080;51.690;5.174;2023-03-01T00:12:44;17.70;;;11.30;;
64669;SDS011;51080;51.690;5.174;2023-03-01T00:18:29;16.30;;;10.70;;
64669;SDS011;51080;51.690;5.174;2023-03-01T00:24:15;18.00;;;11.40;;
64669;SDS011;51080;51.690;5.174;2023-03-01T00:30:00;18.30;;;10.90;;
64669;SDS011;51080;51.690;5.174;2023-03-01T00:35:45;16.90;;;11.10;;
64669;SDS011;51080;51.690;5.174;2023-03-01T00:41:29;16.40;;;10.90;;
64669;SDS011;51080;51.690;5.174;2023-03-01T00:47:15;17.60;;;11.00;;
64669;SDS011;51080;51.690;5.174;2023-03-01T00:52:59;17.00;;;10.90;;
64669;SDS011;51080;51.690;5.174;2023-03-01T00:58:44;16.80;;;10.40;;
64669;SDS011;51080;51.690;5.174;2023-03-01T01:04:29;15.60;;;10.10;;
64669;SDS011;51080;51.690;5.174;2023-03-01T01:10:13;17.70;;;10.10;;
64669;SDS011;51080;51.690;5.174;2023-03-01T01:16:01;16.60;;;10.30;;
64669;SDS011;51080;51.690;5.174;2023-03-01T01:21:45;15.00;;;10.00;;
64669;SDS011;51080;51.690;5.174;2023-03-01T01:27:30;17.10;;;10.30;;
64669;SDS011;51080;51.690;5.174;2023-03-01T01:33:14;14.60;;;10.40;;
64669;SDS011;51080;51.690;5.174;2023-03-01T01:38:59;15.20;;;10.10;;
64669;SDS011;51080;51.690;5.174;2023-03-01T01:44:45;17.20;;;10.50;;
64669;SDS011;51080;51.690;5.174;2023-03-01T01:50:31;17.00;;;10.90;;
64669;SDS011;51080;51.690;5.174;2023-03-01T01:56:19;17.90;;;10.90;;
64669;SDS011;51080;51.690;5.174;2023-03-01T02:02:05;16.60;;;10.90;;
64669;SDS011;51080;51.690;5.174;2023-03-01T02:08:20;17.90;;;11.70;;
64669;SDS011;51080;51.690;5.174;2023-03-01T02:14:37;16.70;;;10.70;;
64669;SDS011;51080;51.690;5.174;2023-03-01T02:20:32;17.10;;;11.20;;
64669;SDS011;51080;51.690;5.174;2023-03-01T02:26:29;17.10;;;11.20;;
64669;SDS011;51080;51.690;5.174;2023-03-01T02:32:20;17.10;;;9.90;;
64669;SDS011;51080;51.690;5.174;2023-03-01T02:38:06;16.20;;;10.40;;
64669;SDS011;51080;51.690;5.174;2023-03-01T02:43:54;14.70;;;9.30;;
64669;SDS011;51080;51.690;5.174;2023-03-01T02:49:39;16.10;;;10.00;;
64669;SDS011;51080;51.690;5.174;2023-03-01T02:55:23;16.10;;;10.40;;
64669;SDS011;51080;51.690;5.174;2023-03-01T03:01:08;16.70;;;10.80;;
64669;SDS011;51080;51.690;5.174;2023-03-01T03:06:52;16.60;;;9.90;;
64669;SDS011;51080;51.690;5.174;2023-03-01T03:12:37;17.60;;;10.30;;
64669;SDS011;51080;51.690;5.174;2023-03-01T03:18:23;16.10;;;10.50;;
64669;SDS011;51080;51.690;5.174;2023-03-01T03:24:08;16.20;;;10.30;;
64669;SDS011;51080;51.690;5.174;2023-03-01T03:29:52;14.10;;;10.00;;
64669;SDS011;51080;51.690;5.174;2023-03-01T03:35:42;14.50;;;9.30;;
64669;SDS011;51080;51.690;5.174;2023-03-01T03:41:29;14.50;;;9.20;;
64669;SDS011;51080;51.690;5.174;2023-03-01T03:47:13;13.90;;;8.90;;
64669;SDS011;51080;51.690;5.174;2023-03-01T03:53:02;14.30;;;8.20;;
64669;SDS011;51080;51.690;5.174;2023-03-01T03:58:49;12.90;;;8.60;;
64669;SDS011;51080;51.690;5.174;2023-03-01T04:04:33;13.60;;;8.60;;
64669;SDS011;51080;51.690;5.174;2023-03-01T04:10:49;11.70;;;7.40;;
64669;SDS011;51080;51.690;5.174;2023-03-01T04:16:36;12.00;;;7.90;;
64669;SDS011;51080;51.690;5.174;2023-03-01T04:22:20;12.50;;;7.60;;
64669;SDS011;51080;51.690;5.174;2023-03-01T04:28:36;13.40;;;8.00;;
64669;SDS011;51080;51.690;5.174;2023-03-01T04:34:24;14.80;;;8.30;;
64669;SDS011;51080;51.690;5.174;2023-03-01T04:40:09;14.80;;;8.30;;
64669;SDS011;51080;51.690;5.174;2023-03-01T04:45:59;13.20;;;8.40;;
64669;SDS011;51080;51.690;5.174;2023-03-01T04:51:44;12.40;;;8.30;;
64669;SDS011;51080;51.690;5.174;2023-03-01T04:57:28;11.80;;;8.20;;
64669;SDS011;51080;51.690;5.174;2023-03-01T05:03:13;13.00;;;8.20;;
64669;SDS011;51080;51.690;5.174;2023-03-01T05:08:58;14.30;;;7.90;;
64669;SDS011;51080;51.690;5.174;2023-03-01T05:14:42;13.90;;;8.80;;
64669;SDS011;51080;51.690;5.174;2023-03-01T05:20:27;12.50;;;7.70;;
64669;SDS011;51080;51.690;5.174;2023-03-01T05:26:14;11.70;;;7.90;;
64669;SDS011;51080;51.690;5.174;2023-03-01T05:32:01;15.30;;;8.60;;
64669;SDS011;51080;51.690;5.174;2023-03-01T05:37:47;13.50;;;8.20;;
64669;SDS011;51080;51.690;5.174;2023-03-01T05:43:32;13.40;;;7.90;;
64669;SDS011;51080;51.690;5.174;2023-03-01T05:49:46;13.10;;;8.20;;
64669;SDS011;51080;51.690;5.174;2023-03-01T05:56:02;12.60;;;7.80;;
64669;SDS011;51080;51.690;5.174;2023-03-01T06:01:47;14.00;;;8.70;;
64669;SDS011;51080;51.690;5.174;2023-03-01T06:07:31;13.40;;;8.30;;
64669;SDS011;51080;51.690;5.174;2023-03-01T06:13:15;12.80;;;8.00;;
64669;SDS011;51080;51.690;5.174;2023-03-01T06:19:30;12.90;;;7.60;;
64669;SDS011;51080;51.690;5.174;2023-03-01T06:25:16;13.70;;;8.50;;
64669;SDS011;51080;51.690;5.174;2023-03-01T06:31:03;13.80;;;8.90;;
64669;SDS011;51080;51.690;5.174;2023-03-01T06:36:46;12.60;;;8.10;;
64669;SDS011;51080;51.690;5.174;2023-03-01T06:42:31;14.40;;;8.70;;
64669;SDS011;51080;51.690;5.174;2023-03-01T06:48:15;16.60;;;8.80;;
64669;SDS011;51080;51.690;5.174;2023-03-01T06:54:01;15.00;;;8.90;;
64669;SDS011;51080;51.690;5.174;2023-03-01T06:59:46;18.30;;;9.60;;
64669;SDS011;51080;51.690;5.174;2023-03-01T07:05:30;18.10;;;9.30;;
64669;SDS011;51080;51.690;5.174;2023-03-01T07:11:16;13.10;;;8.50;;
64669;SDS011;51080;51.690;5.174;2023-03-01T07:17:01;14.40;;;8.60;;
64669;SDS011;51080;51.690;5.174;2023-03-01T07:22:45;14.90;;;8.50;;
64669;SDS011;51080;51.690;5.174;2023-03-01T07:28:30;15.00;;;8.30;;
64669;SDS011;51080;51.690;5.174;2023-03-01T07:34:13;16.50;;;8.80;;
64669;SDS011;51080;51.690;5.174;2023-03-01T07:40:01;14.00;;;8.30;;
64669;SDS011;51080;51.690;5.174;2023-03-01T07:45:53;12.80;;;8.20;;
64669;SDS011;51080;51.690;5.174;2023-03-01T07:51:40;15.40;;;8.20;;
64669;SDS011;51080;51.690;5.174;2023-03-01T07:57:28;14.30;;;8.60;;
64669;SDS011;51080;51.690;5.174;2023-03-01T08:03:14;14.20;;;7.90;;
64669;SDS011;51080;51.690;5.174;2023-03-01T08:08:59;14.60;;;8.00;;
64669;SDS011;51080;51.690;5.174;2023-03-01T08:14:43;15.30;;;7.80;;
64669;SDS011;51080;51.690;5.174;2023-03-01T08:20:27;12.80;;;8.20;;
64669;SDS011;51080;51.690;5.174;2023-03-01T08:26:14;12.40;;;7.30;;
64669;SDS011;51080;51.690;5.174;2023-03-01T08:32:00;11.50;;;7.70;;
64669;SDS011;51080;51.690;5.174;2023-03-01T08:37:46;14.80;;;7.80;;
64669;SDS011;51080;51.690;5.174;2023-03-01T08:43:31;13.00;;;8.00;;
64669;SDS011;51080;51.690;5.174;2023-03-01T08:49:17;12.50;;;7.80;;
64669;SDS011;51080;51.690;5.174;2023-03-01T08:55:03;13.60;;;8.40;;
64669;SDS011;51080;51.690;5.174;2023-03-01T09:00:49;14.40;;;7.90;;
64669;SDS011;51080;51.690;5.174;2023-03-01T09:07:04;14.90;;;8.20;;
64669;SDS011;51080;51.690;5.174;2023-03-01T09:12:48;13.90;;;8.00;;
64669;SDS011;51080;51.690;5.174;2023-03-01T09:18:32;13.70;;;8.20;;
64669;SDS011;51080;51.690;5.174;2023-03-01T09:24:21;12.00;;;7.20;;
64669;SDS011;51080;51.690;5.174;2023-03-01T09:30:09;14.50;;;7.80;;
64669;SDS011;51080;51.690;5.174;2023-03-01T09:35:57;13.70;;;7.50;;
64669;SDS011;51080;51.690;5.174;2023-03-01T09:41:46;10.90;;;7.30;;
64669;SDS011;51080;51.690;5.174;2023-03-01T09:47:40;12.60;;;7.60;;
64669;SDS011;51080;51.690;5.174;2023-03-01T09:53:31;12.60;;;7.80;;
64669;SDS011;51080;51.690;5.174;2023-03-01T09:59:36;13.80;;;8.10;;
64669;SDS011;51080;51.690;5.174;2023-03-01T10:11:45;11.90;;;7.10;;
64669;SDS011;51080;51.690;5.174;2023-03-01T10:23:32;9.40;;;6.10;;
64669;SDS011;51080;51.690;5.174;2023-03-01T10:29:19;11.00;;;6.70;;
64669;SDS011;51080;51.690;5.174;2023-03-01T10:35:23;9.20;;;5.70;;
64669;SDS011;51080;51.690;5.174;2023-03-01T10:41:10;11.80;;;6.10;;
64669;SDS011;51080;51.690;5.174;2023-03-01T10:47:01;10.80;;;6.20;;
64669;SDS011;51080;51.690;5.174;2023-03-01T10:52:55;11.10;;;6.00;;
64669;SDS011;51080;51.690;5.174;2023-03-01T10:58:58;10.40;;;6.10;;
64669;SDS011;51080;51.690;5.174;2023-03-01T11:11:05;11.30;;;6.20;;
64669;SDS011;51080;51.690;5.174;2023-03-01T11:17:24;8.40;;;5.60;;
64669;SDS011;51080;51.690;5.174;2023-03-01T11:23:42;10.30;;;6.30;;
64669;SDS011;51080;51.690;5.174;2023-03-01T11:30:04;7.80;;;5.70;;
64669;SDS011;51080;51.690;5.174;2023-03-01T11:36:03;8.30;;;6.40;;
64669;SDS011;51080;51.690;5.174;2023-03-01T11:42:06;11.00;;;6.20;;
64669;SDS011;51080;51.690;5.174;2023-03-01T11:48:01;9.60;;;6.20;;
64669;SDS011;51080;51.690;5.174;2023-03-01T12:00:42;8.50;;;6.00;;
64669;SDS011;51080;51.690;5.174;2023-03-01T12:12:36;9.10;;;6.40;;
64669;SDS011;51080;51.690;5.174;2023-03-01T12:18:52;8.30;;;6.00;;
64669;SDS011;51080;51.690;5.174;2023-03-01T12:25:28;9.90;;;6.40;;
64669;SDS011;51080;51.690;5.174;2023-03-01T12:37:36;10.90;;;6.80;;
64669;SDS011;51080;51.690;5.174;2023-03-01T12:43:48;10.60;;;7.10;;
64669;SDS011;51080;51.690;5.174;2023-03-01T12:49:44;11.50;;;6.80;;
64669;SDS011;51080;51.690;5.174;2023-03-01T12:55:36;17.40;;;9.20;;
64669;SDS011;51080;51.690;5.174;2023-03-01T13:01:42;9.50;;;6.30;;
64669;SDS011;51080;51.690;5.174;2023-03-01T13:07:37;8.10;;;6.00;;
64669;SDS011;51080;51.690;5.174;2023-03-01T13:13:37;9.20;;;6.30;;
64669;SDS011;51080;51.690;5.174;2023-03-01T13:19:57;8.70;;;5.90;;
64669;SDS011;51080;51.690;5.174;2023-03-01T13:37:40;8.00;;;5.70;;
64669;SDS011;51080;51.690;5.174;2023-03-01T13:43:56;8.10;;;5.30;;
64669;SDS011;51080;51.690;5.174;2023-03-01T13:49:48;8.70;;;5.50;;
64669;SDS011;51080;51.690;5.174;2023-03-01T13:55:42;9.00;;;5.60;;
64669;SDS011;51080;51.690;5.174;2023-03-01T14:02:10;0.00;;;0.00;;
64669;SDS011;51080;51.690;5.174;2023-03-01T14:08:26;0.00;;;0.00;;
64669;SDS011;51080;51.690;5.174;2023-03-01T14:14:51;0.00;;;0.00;;
64669;SDS011;51080;51.690;5.174;2023-03-01T14:21:12;0.00;;;0.00;;
64669;SDS011;51080;51.690;5.174;2023-03-01T14:27:30;0.00;;;0.00;;
64669;SDS011;51080;51.690;5.174;2023-03-01T14:33:54;0.00;;;0.00;;
64669;SDS011;51080;51.690;5.174;2023-03-01T14:40:19;0.00;;;0.00;;
64669;SDS011;51080;51.690;5.174;2023-03-01T14:46:51;0.00;;;0.00;;
64669;SDS011;51080;51.690;5.174;2023-03-01T14:53:12;0.00;;;0.00;;
64669;SDS011;51080;51.690;5.174;2023-03-01T14:59:33;0.00;;;0.00;;
64669;SDS011;51080;51.690;5.174;2023-03-01T15:05:47;0.00;;;0.00;;
64669;SDS011;51080;51.690;5.174;2023-03-01T15:12:23;0.00;;;0.00;;
64669;SDS011;51080;51.690;5.174;2023-03-01T15:18:46;0.00;;;0.00;;
64669;SDS011;51080;51.690;5.174;2023-03-01T15:25:13;0.00;;;0.00;;
64669;SDS011;51080;51.690;5.174;2023-03-01T15:31:31;0.00;;;0.00;;
64669;SDS011;51080;51.690;5.174;2023-03-01T15:37:47;0.00;;;0.00;;
64669;SDS011;51080;51.690;5.174;2023-03-01T15:50:42;0.00;;;0.00;;
64669;SDS011;51080;51.690;5.174;2023-03-01T15:56:56;0.00;;;0.00;;
64669;SDS011;51080;51.690;5.174;2023-03-01T16:03:12;0.00;;;0.00;;
64669;SDS011;51080;51.690;5.174;2023-03-01T16:09:28;0.00;;;0.00;;
64669;SDS011;51080;51.690;5.174;2023-03-01T16:15:43;0.00;;;0.00;;
64669;SDS011;51080;51.690;5.174;2023-03-01T16:21:58;0.00;;;0.00;;
64669;SDS011;51080;51.690;5.174;2023-03-01T16:28:12;0.00;;;0.00;;
64669;SDS011;51080;51.690;5.174;2023-03-01T16:34:25;0.00;;;0.00;;
64669;SDS011;51080;51.690;5.174;2023-03-01T16:40:41;0.00;;;0.00;;
64669;SDS011;51080;51.690;5.174;2023-03-01T16:47:01;0.00;;;0.00;;
64669;SDS011;51080;51.690;5.174;2023-03-01T16:53:16;0.00;;;0.00;;
64669;SDS011;51080;51.690;5.174;2023-03-01T16:59:31;0.00;;;0.00;;
64669;SDS011;51080;51.690;5.174;2023-03-01T17:05:46;0.00;;;0.00;;
64669;SDS011;51080;51.690;5.174;2023-03-01T17:12:01;0.00;;;0.00;;
64669;SDS011;51080;51.690;5.174;2023-03-01T17:18:17;0.00;;;0.00;;
64669;SDS011;51080;51.690;5.174;2023-03-01T17:24:33;0.00;;;0.00;;
64669;SDS011;51080;51.690;5.174;2023-03-01T17:30:48;0.00;;;0.00;;
64669;SDS011;51080;51.690;5.174;2023-03-01T17:37:03;0.00;;;0.00;;
64669;SDS011;51080;51.690;5.174;2023-03-01T17:43:17;0.00;;;0.00;;
64669;SDS011;51080;51.690;5.174;2023-03-01T17:49:33;0.00;;;0.00;;
64669;SDS011;51080;51.690;5.174;2023-03-01T17:55:48;0.00;;;0.00;;
64669;SDS011;51080;51.690;5.174;2023-03-01T18:02:03;0.00;;;0.00;;
64669;SDS011;51080;51.690;5.174;2023-03-01T18:08:19;0.00;;;0.00;;
64669;SDS011;51080;51.690;5.174;2023-03-01T18:14:34;0.00;;;0.00;;
64669;SDS011;51080;51.690;5.174;2023-03-01T18:20:56;0.00;;;0.00;;
64669;SDS011;51080;51.690;5.174;2023-03-01T18:27:24;0.00;;;0.00;;
64669;SDS011;51080;51.690;5.174;2023-03-01T18:33:43;0.00;;;0.00;;
64669;SDS011;51080;51.690;5.174;2023-03-01T18:40:07;0.00;;;0.00;;
64669;SDS011;51080;51.690;5.174;2023-03-01T18:46:35;0.00;;;0.00;;
64669;SDS011;51080;51.690;5.174;2023-03-01T18:52:51;0.00;;;0.00;;
64669;SDS011;51080;51.690;5.174;2023-03-01T18:59:10;0.00;;;0.00;;
64669;SDS011;51080;51.690;5.174;2023-03-01T19:05:29;0.00;;;0.00;;
64669;SDS011;51080;51.690;5.174;2023-03-01T19:11:47;0.00;;;0.00;;
64669;SDS011;51080;51.690;5.174;2023-03-01T19:18:01;0.00;;;0.00;;
64669;SDS011;51080;51.690;5.174;2023-03-01T19:24:17;0.00;;;0.00;;
64669;SDS011;51080;51.690;5.174;2023-03-01T19:30:36;0.00;;;0.00;;
64669;SDS011;51080;51.690;5.174;2023-03-01T19:37:01;0.00;;;0.00;;
64669;SDS011;51080;51.690;5.174;2023-03-01T19:43:37;0.00;;;0.00;;
64669;SDS011;51080;51.690;5.174;2023-03-01T19:49:52;0.00;;;0.00;;
64669;SDS011;51080;51.690;5.174;2023-03-01T19:56:09;0.00;;;0.00;;
64669;SDS011;51080;51.690;5.174;2023-03-01T20:02:28;0.00;;;0.00;;
64669;SDS011;51080;51.690;5.174;2023-03-01T20:08:46;0.00;;;0.00;;
64669;SDS011;51080;51.690;5.174;2023-03-01T20:15:03;0.00;;;0.00;;
64669;SDS011;51080;51.690;5.174;2023-03-01T20:21:21;0.00;;;0.00;;
64669;SDS011;51080;51.690;5.174;2023-03-01T20:27:41;0.00;;;0.00;;
64669;SDS011;51080;51.690;5.174;2023-03-01T20:33:59;0.00;;;0.00;;
64669;SDS011;51080;51.690;5.174;2023-03-01T20:40:15;0.00;;;0.00;;
64669;SDS011;51080;51.690;5.174;2023-03-01T20:46:35;0.00;;;0.00;;
64669;SDS011;51080;51.690;5.174;2023-03-01T20:52:51;0.00;;;0.00;;
64669;SDS011;51080;51.690;5.174;2023-03-01T20:59:07;0.00;;;0.00;;
64669;SDS011;51080;51.690;5.174;2023-03-01T21:05:26;0.00;;;0.00;;
64669;SDS011;51080;51.690;5.174;2023-03-01T21:11:41;0.00;;;0.00;;
64669;SDS011;51080;51.690;5.174;2023-03-01T21:17:58;0.00;;;0.00;;
64669;SDS011;51080;51.690;5.174;2023-03-01T21:24:13;0.00;;;0.00;;
64669;SDS011;51080;51.690;5.174;2023-03-01T21:30:28;0.00;;;0.00;;
64669;SDS011;51080;51.690;5.174;2023-03-01T21:36:42;0.00;;;0.00;;
64669;SDS011;51080;51.690;5.174;2023-03-01T21:42:57;0.00;;;0.00;;
64669;SDS011;51080;51.690;5.174;2023-03-01T21:49:13;0.00;;;0.00;;
64669;SDS011;51080;51.690;5.174;2023-03-01T21:55:28;0.00;;;0.00;;
64669;SDS011;51080;51.690;5.174;2023-03-01T22:01:42;0.00;;;0.00;;
64669;SDS011;51080;51.690;5.174;2023-03-01T22:08:00;0.00;;;0.00;;
64669;SDS011;51080;51.690;5.174;2023-03-01T22:14:27;0.00;;;0.00;;
64669;SDS011;51080;51.690;5.174;2023-03-01T22:20:47;0.00;;;0.00;;
64669;SDS011;51080;51.690;5.174;2023-03-01T22:27:05;0.00;;;0.00;;
64669;SDS011;51080;51.690;5.174;2023-03-01T22:33:22;0.00;;;0.00;;
64669;SDS011;51080;51.690;5.174;2023-03-01T22:39:40;0.00;;;0.00;;
64669;SDS011;51080;51.690;5.174;2023-03-01T22:45:57;0.00;;;0.00;;
64669;SDS011;51080;51.690;5.174;2023-03-01T22:52:16;0.00;;;0.00;;
64669;SDS011;51080;51.690;5.174;2023-03-01T22:58:34;0.00;;;0.00;;
64669;SDS011;51080;51.690;5.174;2023-03-01T23:04:53;0.00;;;0.00;;
64669;SDS011;51080;51.690;5.174;2023-03-01T23:11:12;0.00;;;0.00;;
64669;SDS011;51080;51.690;5.174;2023-03-01T23:17:34;0.00;;;0.00;;
64669;SDS011;51080;51.690;5.174;2023-03-01T23:23:53;0.00;;;0.00;;
64669;SDS011;51080;51.690;5.174;2023-03-01T23:30:13;0.00;;;0.00;;
64669;SDS011;51080;51.690;5.174;2023-03-01T23:36:32;0.00;;;0.00;;
64669;SDS011;51080;51.690;5.174;2023-03-01T23:42:50;0.00;;;0.00;;
64669;SDS011;51080;51.690;5.174;2023-03-01T23:49:10;0.00;;;0.00;;
64669;SDS011;51080;51.690;5.174;2023-03-01T23:55:30;0.00;;;0.00;;
